Search for airport 
image banner adimage banner adimage banner ad
image banner ad

80PN - Hanny Beaver Airpark Inc

Located in Hookstown, United States

ICAO - 80PN, IATA -

Data provided by Airmate  

General information

Coordinates: N40°32'7" W80°26'38"
Elevation is 1220 feet MSL.
Magnetic variation is -07° East
View others Airports in Pennsylvania

Operational data

Special qualification required
Current time UTC:
Current local time:
Weather at : KPIT - Pittsburgh Intl ( 19 km )
METAR: KPIT 182251Z 00000KT 10SM SCT250 26/06 A3028 RMK AO2 SLP256 T02560061
TAF: KPIT 182056Z 1821/1924 09004KT P6SM SCT250 FM191500 17004KT P6SM SCT040
View NOTAMs / SUP AIP / TFR affecting this airport [VIEW]
Communications frequencies: [VIEW]

Runways:

RWY identifierQFULength (ft)Width (ft)SurfaceLDA (ft)
132719100OTHER
312719100OTHER

Airport contact information

Address: Hookstown United States

Satellite view of 80PN